AirNav   Air Wisconsin Up To $57,000 Bonus
 
 1709 users online  

CA70 Sun Hill Ranch Airport
Helendale, California, USA

GOING TO HELENDALE?


FAA INFORMATION EFFECTIVE 04 NOVEMBER 2021

Location

FAA Identifier: CA70
Lat/Long: 34-45-28.9460N 117-29-48.1890W
34-45.482433N 117-29.803150W
34.7580406,-117.4967192
(estimated)
Elevation: 2984 ft. / 910 m (estimated)
Variation: 14E (1985)
From city: 10 miles W of HELENDALE, CA
Time zone: UTC -7 (UTC -8 during Standard Time)
Zip code: 92301

Airport Operations

Airport use: Private use. Permission required prior to landing
Activation date: 10/1949
Control tower: no
ARTCC: LOS ANGELES CENTER
FSS: RIVERSIDE FLIGHT SERVICE STATION
Attendance: DAYLIGHT HOURS
Wind indicator: yes
Segmented circle: yes

Airport Communications

WX AWOS-3 at VCV (11 nm SE): 135.475 (760-246-3635)

Nearby radio navigation aids

VOR radial/distance  VOR name  Freq  Var
VCVr318/11.2VICTORVILLE VOR/DME109.0514E
EDWr127/17.8EDWARDS VORTAC116.4012E
PMDr060/29.0PALMDALE VORTAC114.5015E

Airport Services

Fuel available: EMERGENCY FUEL AVBL 80 100LL MOGAS.
Parking: tiedowns
Bottled oxygen: NONE
Bulk oxygen: NONE

Runway Information

Runway 7/25

Dimensions: 5300 x 90 ft. / 1615 x 27 m
Surface: dirt, in fair condition
RUNWAY 7  RUNWAY 25
Elevation: 2984.0 ft.
Traffic pattern: leftright
Displaced threshold: 280 ft.350 ft.
Runway end identifier lights: nono
Obstructions: 6 ft. fence, 30 ft. from runway, 5:1 slope to clear
APCH RATIO 50:1 TO DSPLCD THR.
6 ft. fence, 25 ft. from runway, 4:1 slope to clear
APCH RATIO 50:1 TO DSPLCD THR.

Runway 12/30

Dimensions: 3800 x 80 ft. / 1158 x 24 m
Surface: dirt, in fair condition
RUNWAY 12  RUNWAY 30
Traffic pattern: leftright
Displaced threshold: 380 ft.250 ft.
Runway end identifier lights: nono
Obstructions: 6 ft. fence, 45 ft. left of centerline
APCH RATIO 28:1 TO DSPLCD THR OVER +6' FENCE 170' FROM DSPLCD THR 140'L.
7 ft. fence, 45 ft. left of centerline
APCH RATIO 20:1 TO DSPLCD THR OVER +7' FENCE 140' FROM DSPLCD THR 140'L.

Airport Ownership and Management from official FAA records

Ownership: Privately-owned
Owner: CALHAN CAPITAL INC.
3029 E. LOS CERILLOS DRIVE
WEST COVINA, CA 91791
Phone (626) 861-2366
Manager: CHIUKIT CHEUNG
3029 E. LOS CERILLOS DRIVE
WEST COVINA, CA 91791
Phone (626) 861-2366

Airport Operational Statistics

Aircraft operations: avg 25/month *
67% transient general aviation
33% local general aviation
* for 12-month period ending 18 June 1997

Additional Remarks

RWY 07/25 & 12/30 DSPLCD THRS MARKED WITH A SINGLE WHITE PAINTED TIRE OR CONE EA SIDE OF RWY.
FOR CD CTC JOSHUA APCH AT 661-277-3843.

Instrument Procedures

There are no published instrument procedures at CA70.

Some nearby airports with instrument procedures:

KVCV - Southern California Logistics Airport (11 nm SE)
KAPV - Apple Valley Airport (19 nm SE)
KEDW - Edwards Air Force Base (21 nm NW)
KPMD - Palmdale USAF Plant 42 Airport (30 nm W)
L71 - California City Municipal Airport (35 nm NW)
 
Loc | Ops | Rwys | IFR | FBO | Links
Com | Nav | Svcs | Stats | Notes

Luxivair - San Bernardino International Airport
 
Area around CA70 (Sun Hill Ranch Airport)
 
Road maps at: MapQuest Bing Google
 
Aerial photo
WARNING: Photo may not be current or correct
Aerial photo of CA70 (Sun Hill Ranch Airport)
Photo by Michael Radomsky
Photo taken 16-Dec-2006
from 10,000 fett looking approximately south

Do you have a better or more recent aerial photo of Sun Hill Ranch Airport that you would like to share? If so, please send us your photo.

 
Sectional chart

 
Airport distance calculator
Flying to Sun Hill Ranch Airport? Find the distance to fly.

From to CA70

Sunrise and sunset
Times for 30-Nov-2021
 Local
(UTC-8)
 Zulu
(UTC)
Morning civil twilight06:1214:12
Sunrise06:3914:39
Sunset16:3800:38
Evening civil twilight17:0601:06

Current date and time
Zulu (UTC)  30-Nov-2021 17:28:29
Local (UTC-8)  30-Nov-2021 09:28:29
 
METAR
KVCV 
12nm SE 
301710Z 14004KT 10SM CLR 14/M09 A3024 RMK AO2
KGXA 
14nm SW 
291858Z AUTO 00000KT 10SM CLR 20/M15 A3019 RMK AO2 SLP210 WND DATA ESTMD T01951154
KEDW 
20nm NW 
301658Z 00000KT 80SM CLR 05/M13 A3019 RMK AO2A SLP227 T00501129
K9L2 
23nm NW 
301658Z AUTO 00000KT 10SM CLR 07/M12 A3020 RMK AO2 SLP230 T00681125 $
TAF
KEDW 
20nm NW 
301400Z 3014/0120 VRB06KT 9999 SKC QNH3013INS TX24/3022Z TN02/3014Z
NOTAMs
Click for the latest NOTAMs
NOTAMs are issued by the DoD/FAA and will open in a separate window not controlled by AirNav.

 

 
 

Would you like to see your business listed on this page?

 If your business provides an interesting product or service to pilots, flight crews, aircraft, or users of the Sun Hill Ranch Airport, you should consider listing it here.  To start the listing process, click on the button below
 
Add a business
 

Other Pages about Sun Hill Ranch Airport

Update a link
 
Copyright © AirNav, LLC. All rights reserved. Privacy Policy  Contact